Time;durP1;ratioP1;P1;durP2;ratioP2;P2;SDS_P1;SDS_P2;PMS_P1;PMS_P2;Temp;Humidity;BMP_temperature;BMP_pressure;BME280_temperature;BME280_humidity;BME280_pressure;Samples;Min_cycle;Max_cycle;Signal;HPM_P1;HPM_P2
2022/08/21 00:00:50;;;;;;;7.20;3.10;;;18.80;99.90;;;;;;5033236;28;20487;-73
2022/08/21 00:03:18;;;;;;;3.30;2.97;;;18.90;99.90;;;;;;5033788;28;20485;-73
2022/08/21 00:05:50;;;;;;;12.23;4.57;;;18.90;99.90;;;;;;5034320;28;20499;-74
2022/08/21 00:08:18;;;;;;;4.10;3.57;;;19.00;99.90;;;;;;5038324;28;21018;-73
2022/08/21 00:10:46;;;;;;;7.10;4.00;;;19.00;99.90;;;;;;5035861;28;20463;-73
2022/08/21 00:13:14;;;;;;;4.33;3.57;;;19.00;99.90;;;;;;5032040;28;21003;-73
2022/08/21 00:15:42;;;;;;;3.07;2.70;;;18.90;99.90;;;;;;5035127;28;20466;-73
2022/08/21 00:18:12;;;;;;;4.20;2.60;;;18.70;99.90;;;;;;5034059;28;20487;-73
2022/08/21 00:20:42;;;;;;;5.03;3.60;;;18.70;99.90;;;;;;5038109;28;20460;-73
2022/08/21 00:23:09;;;;;;;6.60;3.30;;;18.60;99.90;;;;;;5029559;28;20484;-73
2022/08/21 00:25:37;;;;;;;3.83;3.53;;;18.60;99.90;;;;;;5041443;28;20546;-73
2022/08/21 00:28:06;;;;;;;20.87;4.57;;;18.50;99.90;;;;;;5033519;28;20479;-73
2022/08/21 00:30:42;;;;;;;9.33;3.00;;;18.50;99.90;;;;;;5034321;28;21117;-74
2022/08/21 00:33:12;;;;;;;6.67;3.77;;;18.50;99.90;;;;;;5038350;28;20570;-73
2022/08/21 00:35:43;;;;;;;3.50;3.20;;;18.60;99.90;;;;;;5037946;28;20456;-73
2022/08/21 00:38:11;;;;;;;6.13;3.20;;;18.60;99.90;;;;;;5039537;28;21026;-73
2022/08/21 00:40:42;;;;;;;6.50;3.37;;;18.60;99.90;;;;;;5038705;28;21029;-73
2022/08/21 00:43:12;;;;;;;7.10;3.53;;;18.60;99.90;;;;;;5032311;28;20496;-73
2022/08/21 00:45:42;;;;;;;3.23;2.93;;;18.60;99.90;;;;;;5039344;28;20511;-73
2022/08/21 00:48:14;;;;;;;7.10;4.20;;;18.50;99.90;;;;;;5038650;28;20456;-73
2022/08/21 00:50:47;;;;;;;4.40;3.77;;;18.60;99.90;;;;;;5024340;28;20503;-73
2022/08/21 00:53:18;;;;;;;8.63;3.00;;;18.40;99.90;;;;;;5030531;28;20611;-73
2022/08/21 00:55:46;;;;;;;3.67;2.90;;;18.10;99.90;;;;;;5041191;28;20546;-72
2022/08/21 00:58:15;;;;;;;4.70;2.90;;;18.10;99.90;;;;;;5037316;28;20548;-72
2022/08/21 01:00:47;;;;;;;5.43;4.03;;;18.20;99.90;;;;;;5034589;28;20999;-72
2022/08/21 01:03:21;;;;;;;4.67;2.87;;;18.10;99.90;;;;;;5037161;28;20640;-71
2022/08/21 01:05:48;;;;;;;3.53;2.60;;;18.30;99.90;;;;;;5037440;28;20580;-72
2022/08/21 01:08:17;;;;;;;5.33;3.53;;;18.30;99.90;;;;;;5037691;28;20460;-71
2022/08/21 01:10:46;;;;;;;7.60;3.57;;;18.30;99.90;;;;;;5038085;28;20462;-72
2022/08/21 01:13:17;;;;;;;3.40;3.10;;;18.30;99.90;;;;;;5042104;28;20483;-72
2022/08/21 01:15:49;;;;;;;4.73;3.90;;;18.40;99.90;;;;;;5035900;28;20448;-71
2022/08/21 01:18:17;;;;;;;5.90;4.40;;;18.60;99.90;;;;;;5034052;28;20967;-72
2022/08/21 01:21:10;;;;;;;3.63;2.93;;;18.30;99.90;;;;;;5032962;28;21022;-71
2022/08/21 01:23:39;;;;;;;5.77;4.47;;;18.20;99.90;;;;;;5039318;28;20466;-71
2022/08/21 01:26:06;;;;;;;12.43;5.10;;;18.00;99.90;;;;;;5038132;28;20460;-72
2022/08/21 01:28:50;;;;;;;5.93;3.77;;;18.10;99.90;;;;;;5031387;28;20827;-72
2022/08/21 01:31:20;;;;;;;3.27;2.87;;;18.20;99.90;;;;;;5030519;28;20480;-73
2022/08/21 01:33:47;;;;;;;4.00;3.40;;;18.10;99.90;;;;;;5040892;28;20491;-72
2022/08/21 01:36:15;;;;;;;4.23;3.17;;;18.30;99.90;;;;;;5031623;28;20468;-72
2022/08/21 01:38:42;;;;;;;3.33;3.00;;;18.50;99.90;;;;;;5036526;28;20459;-72
2022/08/21 01:41:10;;;;;;;5.40;3.00;;;18.60;99.90;;;;;;5036813;28;20525;-71
2022/08/21 01:43:37;;;;;;;10.83;4.27;;;18.50;99.90;;;;;;5036177;28;20460;-72
2022/08/21 01:46:47;;;;;;;10.60;3.13;;;18.40;99.90;;;;;;5040186;28;20522;-72
2022/08/21 01:49:15;;;;;;;13.10;3.93;;;18.30;99.90;;;;;;5022336;28;21076;-72
2022/08/21 01:51:46;;;;;;;4.67;3.63;;;18.20;99.90;;;;;;5023169;28;20507;-71
2022/08/21 01:54:17;;;;;;;3.10;2.80;;;18.10;99.90;;;;;;5030380;28;20491;-72
2022/08/21 01:56:50;;;;;;;8.33;3.73;;;18.20;99.90;;;;;;5030379;28;20842;-72
2022/08/21 01:59:17;;;;;;;3.50;3.20;;;18.10;99.90;;;;;;5036808;28;20552;-72
2022/08/21 02:01:45;;;;;;;4.17;3.20;;;18.00;99.90;;;;;;5038560;28;20590;-71
2022/08/21 02:04:14;;;;;;;8.13;4.90;;;17.90;99.90;;;;;;5040072;28;20926;-72
2022/08/21 02:06:42;;;;;;;6.60;5.50;;;17.90;99.90;;;;;;5036794;28;20461;-72
2022/08/21 02:09:14;;;;;;;8.53;3.77;;;17.70;99.90;;;;;;5030081;28;20460;-72
2022/08/21 02:11:44;;;;;;;5.33;3.73;;;17.80;99.90;;;;;;5030468;28;20621;-72
2022/08/21 02:14:12;;;;;;;5.83;3.97;;;17.80;99.90;;;;;;5027727;28;20471;-71
2022/08/21 02:16:40;;;;;;;6.80;4.17;;;17.80;99.90;;;;;;5034044;28;20823;-72
2022/08/21 02:19:16;;;;;;;5.00;3.90;;;17.70;99.90;;;;;;5036491;28;21086;-72
2022/08/21 02:21:44;;;;;;;10.07;4.30;;;17.70;99.90;;;;;;5036617;28;20478;-72
2022/08/21 02:24:13;;;;;;;5.87;4.47;;;17.70;99.90;;;;;;5038226;28;20823;-72
2022/08/21 02:26:40;;;;;;;6.17;4.57;;;17.70;99.90;;;;;;5034944;28;20893;-72
2022/08/21 02:29:07;;;;;;;5.13;3.93;;;17.60;99.90;;;;;;5033999;28;21026;-72
2022/08/21 02:31:35;;;;;;;4.30;3.90;;;17.60;99.90;;;;;;5036008;28;20491;-72
2022/08/21 02:34:01;;;;;;;4.37;3.73;;;17.60;99.90;;;;;;5045703;28;20743;-73
2022/08/21 02:36:29;;;;;;;5.47;4.97;;;17.50;99.90;;;;;;5040467;28;20465;-73
2022/08/21 02:38:56;;;;;;;4.93;4.43;;;17.50;99.90;;;;;;5040930;28;20462;-73
2022/08/21 02:41:25;;;;;;;6.43;4.00;;;17.60;99.90;;;;;;5033773;28;22252;-72
2022/08/21 02:43:52;;;;;;;4.30;3.83;;;17.50;99.90;;;;;;5039383;28;20538;-73
2022/08/21 02:46:21;;;;;;;7.43;4.77;;;17.50;99.90;;;;;;5042450;28;20479;-73
2022/08/21 02:48:48;;;;;;;9.40;3.87;;;17.40;99.90;;;;;;5041299;28;21019;-73
2022/08/21 02:51:20;;;;;;;7.90;4.30;;;17.30;99.90;;;;;;5039063;28;20853;-73
2022/08/21 02:54:34;;;;;;;5.80;4.30;;;17.30;99.90;;;;;;5039645;28;20461;-73
2022/08/21 02:57:02;;;;;;;5.10;3.67;;;17.40;99.90;;;;;;5037143;28;20482;-73
2022/08/21 02:59:29;;;;;;;6.20;4.47;;;17.10;99.90;;;;;;5038081;28;20475;-72
2022/08/21 03:01:55;;;;;;;5.87;3.93;;;16.90;99.90;;;;;;5036633;28;20487;-73
2022/08/21 03:04:22;;;;;;;10.00;3.80;;;16.90;99.90;;;;;;5039223;28;20462;-73
2022/08/21 03:06:49;;;;;;;5.30;3.97;;;17.00;99.90;;;;;;5039569;28;20461;-73
2022/08/21 03:09:18;;;;;;;5.33;4.60;;;17.10;99.90;;;;;;5036374;28;21009;-73
2022/08/21 03:11:45;;;;;;;5.30;4.30;;;17.10;99.90;;;;;;5028301;28;20501;-73
2022/08/21 03:14:13;;;;;;;7.50;4.20;;;17.20;99.90;;;;;;5039819;28;21313;-73
2022/08/21 03:16:41;;;;;;;5.93;4.00;;;17.30;99.90;;;;;;5036104;28;20464;-73
2022/08/21 03:19:09;;;;;;;6.40;4.17;;;17.20;99.90;;;;;;5040234;28;20455;-73
2022/08/21 03:21:36;;;;;;;4.37;3.97;;;17.20;99.90;;;;;;5033179;28;20479;-73
2022/08/21 03:24:04;;;;;;;5.83;4.47;;;17.10;99.90;;;;;;5036106;28;20463;-73
2022/08/21 03:26:31;;;;;;;5.53;4.20;;;16.90;99.90;;;;;;5045063;28;20535;-73
2022/08/21 03:28:58;;;;;;;4.30;3.90;;;16.80;99.90;;;;;;5030684;28;20518;-73
2022/08/21 03:31:28;;;;;;;4.07;3.33;;;16.70;99.90;;;;;;5042879;28;20482;-73
2022/08/21 03:33:56;;;;;;;6.10;4.00;;;16.70;99.90;;;;;;5039741;28;20453;-73
2022/08/21 03:36:23;;;;;;;5.33;4.87;;;16.80;99.90;;;;;;5034130;28;20547;-73
2022/08/21 03:38:50;;;;;;;8.03;3.80;;;16.80;99.90;;;;;;5039842;28;21080;-73
2022/08/21 03:41:17;;;;;;;6.83;4.07;;;16.80;99.90;;;;;;5036175;28;20469;-73
2022/08/21 03:43:44;;;;;;;7.13;4.50;;;16.70;99.90;;;;;;5067638;23;20526;-71
2022/08/21 03:46:11;;;;;;;6.80;4.23;;;16.60;99.90;;;;;;5053025;28;20573;-71
2022/08/21 03:48:39;;;;;;;6.47;4.07;;;16.60;99.90;;;;;;5053418;28;20451;-71
2022/08/21 03:51:07;;;;;;;10.60;7.70;;;16.60;99.90;;;;;;5056987;28;20474;-71
2022/08/21 03:53:36;;;;;;;12.00;7.93;;;16.70;99.90;;;;;;5047374;28;20475;-71
2022/08/21 03:56:04;;;;;;;4.83;4.33;;;16.70;99.90;;;;;;5032842;28;20460;-70
2022/08/21 03:58:30;;;;;;;6.40;3.70;;;16.70;99.90;;;;;;5034174;28;21068;-73
2022/08/21 04:01:00;;;;;;;4.30;3.90;;;16.70;99.90;;;;;;5043074;28;20977;-70
2022/08/21 04:03:27;;;;;;;8.20;4.33;;;16.60;99.90;;;;;;5033161;28;20763;-73
2022/08/21 04:05:56;;;;;;;6.10;4.17;;;16.60;99.90;;;;;;5027353;28;20487;-71
2022/08/21 04:08:23;;;;;;;4.20;3.80;;;16.60;99.90;;;;;;5033970;28;20456;-72
2022/08/21 04:10:54;;;;;;;5.03;4.63;;;16.60;99.90;;;;;;5038819;28;20598;-72
2022/08/21 04:13:21;;;;;;;5.10;4.53;;;16.70;99.90;;;;;;5041075;28;20587;-72
2022/08/21 04:15:49;;;;;;;4.47;4.00;;;16.60;99.90;;;;;;5034977;28;20463;-72
2022/08/21 04:18:16;;;;;;;4.60;3.90;;;16.40;99.90;;;;;;5030289;28;20463;-72
2022/08/21 04:20:45;;;;;;;5.80;4.10;;;16.20;99.90;;;;;;5037190;28;20953;-71
2022/08/21 04:23:13;;;;;;;5.30;4.03;;;16.30;99.90;;;;;;5032477;28;20560;-72
2022/08/21 04:25:40;;;;;;;6.03;4.80;;;16.40;99.90;;;;;;5047309;28;20477;-72
2022/08/21 04:28:07;;;;;;;9.10;4.90;;;16.30;99.90;;;;;;5042643;28;20460;-72
2022/08/21 04:30:34;;;;;;;5.67;4.90;;;16.20;99.90;;;;;;5038693;28;20462;-72
2022/08/21 04:33:05;;;;;;;4.90;4.37;;;16.20;99.90;;;;;;5036535;28;20483;-72
2022/08/21 04:35:32;;;;;;;5.83;5.27;;;16.20;99.90;;;;;;5027789;28;20943;-72
2022/08/21 04:37:59;;;;;;;4.37;3.70;;;16.30;99.90;;;;;;5033810;28;20467;-72
2022/08/21 04:40:29;;;;;;;7.10;4.07;;;16.30;99.90;;;;;;5039294;28;20456;-72
2022/08/21 04:42:59;;;;;;;4.20;3.20;;;16.20;99.90;;;;;;5044890;28;21081;-72
2022/08/21 04:45:28;;;;;;;9.23;3.67;;;16.20;99.90;;;;;;5043208;28;20951;-72
2022/08/21 04:47:57;;;;;;;6.83;3.40;;;16.00;99.90;;;;;;5039457;28;20460;-72
2022/08/21 04:50:37;;;;;;;6.67;3.93;;;16.10;99.90;;;;;;5031521;28;20453;-72
2022/08/21 04:53:06;;;;;;;8.10;4.87;;;16.30;99.90;;;;;;5047043;28;20503;-72
2022/08/21 04:55:34;;;;;;;4.33;3.93;;;16.40;99.90;;;;;;5032068;28;21070;-72
2022/08/21 04:58:01;;;;;;;4.30;3.90;;;16.30;99.90;;;;;;5034041;28;20464;-71
2022/08/21 05:00:29;;;;;;;4.17;3.70;;;15.90;99.90;;;;;;5027352;28;20464;-72
2022/08/21 05:09:40;;;;;;;5.77;3.80;;;16.30;99.90;;;;;;5038687;28;20522;-71
2022/08/21 05:12:10;;;;;;;7.40;4.57;;;16.30;99.90;;;;;;5026260;28;21027;-71
2022/08/21 05:14:38;;;;;;;5.60;4.50;;;16.40;99.90;;;;;;5031940;28;20964;-71
2022/08/21 05:17:05;;;;;;;5.60;3.80;;;16.60;99.90;;;;;;5028585;28;20453;-70
2022/08/21 05:19:32;;;;;;;5.13;4.33;;;16.80;99.90;;;;;;5027821;28;20476;-71
2022/08/21 05:22:00;;;;;;;5.30;4.50;;;16.90;99.90;;;;;;5029615;28;20471;-73
2022/08/21 05:24:27;;;;;;;9.20;3.63;;;17.20;99.90;;;;;;5031323;28;20551;-71
2022/08/21 05:26:54;;;;;;;5.70;4.37;;;17.50;99.90;;;;;;5022229;28;20480;-71
2022/08/21 05:29:22;;;;;;;4.40;3.90;;;17.80;99.90;;;;;;5039878;28;20471;-71
2022/08/21 05:31:49;;;;;;;6.43;3.53;;;18.00;99.90;;;;;;5040770;28;20974;-70
2022/08/21 05:34:20;;;;;;;4.27;3.73;;;18.30;99.90;;;;;;5034803;28;20460;-71
2022/08/21 05:36:47;;;;;;;10.77;3.97;;;18.60;99.90;;;;;;5039044;28;20911;-71
2022/08/21 05:39:14;;;;;;;5.37;4.20;;;18.80;99.90;;;;;;5032803;28;20543;-70
2022/08/21 05:41:41;;;;;;;4.50;3.30;;;18.90;99.90;;;;;;5043651;28;20802;-70
2022/08/21 05:44:08;;;;;;;6.17;3.70;;;19.20;99.90;;;;;;5038685;28;20539;-71
2022/08/21 05:46:37;;;;;;;9.23;5.27;;;19.50;99.90;;;;;;5031121;28;20502;-71
2022/08/21 05:49:04;;;;;;;11.67;7.03;;;19.90;99.90;;;;;;5035713;28;20890;-71
2022/08/21 05:51:31;;;;;;;6.10;5.50;;;20.20;99.90;;;;;;5028948;28;20519;-71
2022/08/21 05:53:58;;;;;;;5.50;4.80;;;20.60;99.90;;;;;;5017304;28;20480;-71
2022/08/21 05:56:25;;;;;;;8.63;5.30;;;20.60;99.90;;;;;;5026889;28;20863;-72
2022/08/21 05:58:52;;;;;;;5.60;5.10;;;20.60;99.90;;;;;;5037011;28;20461;-72
2022/08/21 06:01:18;;;;;;;5.73;4.50;;;21.10;99.90;;;;;;5036123;28;20747;-72
2022/08/21 06:03:47;;;;;;;4.80;4.33;;;21.50;99.90;;;;;;5023949;28;20483;-73
2022/08/21 06:06:14;;;;;;;11.83;5.10;;;21.70;99.90;;;;;;5036957;28;21092;-72
2022/08/21 06:08:40;;;;;;;5.20;3.93;;;22.10;99.90;;;;;;5043922;28;20446;-72
2022/08/21 06:11:08;;;;;;;4.67;4.10;;;22.50;99.90;;;;;;5037250;28;20472;-72
2022/08/21 06:13:36;;;;;;;5.93;4.70;;;22.50;99.90;;;;;;5034097;28;21014;-71
2022/08/21 06:16:07;;;;;;;11.97;5.50;;;22.80;99.90;;;;;;5032265;28;20454;-70
2022/08/21 06:18:34;;;;;;;6.20;4.23;;;22.90;99.90;;;;;;5036065;28;20476;-71
2022/08/21 06:21:02;;;;;;;7.60;4.83;;;23.20;99.90;;;;;;5035850;28;20475;-71
2022/08/21 06:23:29;;;;;;;5.60;5.00;;;23.20;99.90;;;;;;5038565;28;20467;-71
2022/08/21 06:25:56;;;;;;;9.00;5.43;;;23.40;99.90;;;;;;5030534;28;20500;-71
2022/08/21 06:28:23;;;;;;;6.87;5.73;;;23.50;99.90;;;;;;5040890;28;20497;-71
2022/08/21 06:30:50;;;;;;;6.17;5.20;;;23.30;99.90;;;;;;5037902;28;20471;-71
2022/08/21 06:33:16;;;;;;;6.77;5.20;;;23.10;99.90;;;;;;5038500;28;20484;-72
2022/08/21 06:35:43;;;;;;;6.93;5.20;;;23.40;99.90;;;;;;5039823;28;20460;-71
2022/08/21 06:38:11;;;;;;;7.73;4.90;;;23.70;99.90;;;;;;5023382;28;20461;-71
2022/08/21 06:40:40;;;;;;;7.67;5.10;;;24.10;99.90;;;;;;5030346;28;20483;-72
2022/08/21 06:43:09;;;;;;;6.70;5.07;;;24.50;99.90;;;;;;5033411;28;20521;-72
2022/08/21 06:45:36;;;;;;;6.70;4.73;;;24.30;99.90;;;;;;5033277;28;20887;-72
2022/08/21 06:48:04;;;;;;;5.03;4.53;;;23.90;99.90;;;;;;5037809;28;20770;-72
2022/08/21 06:50:31;;;;;;;5.90;5.20;;;23.90;99.90;;;;;;5031490;28;20464;-72
2022/08/21 06:53:03;;;;;;;5.70;5.17;;;24.30;99.90;;;;;;5043735;28;20483;-72
2022/08/21 06:55:32;;;;;;;10.13;5.53;;;24.20;99.90;;;;;;5043997;28;20530;-72
2022/08/21 06:57:58;;;;;;;10.53;5.27;;;24.70;99.90;;;;;;5042728;28;20964;-73
2022/08/21 07:00:25;;;;;;;5.60;4.93;;;25.00;99.90;;;;;;5048909;28;20459;-72
2022/08/21 07:02:52;;;;;;;7.87;5.80;;;25.30;99.90;;;;;;5043913;28;20485;-72
2022/08/21 07:05:19;;;;;;;9.17;5.63;;;25.40;99.90;;;;;;5038368;28;20465;-72
2022/08/21 07:07:47;;;;;;;6.40;5.10;;;25.60;99.90;;;;;;5029388;28;20576;-71
2022/08/21 07:10:14;;;;;;;10.70;5.20;;;25.30;99.90;;;;;;5022405;28;20558;-72
2022/08/21 07:12:42;;;;;;;10.03;5.30;;;25.70;99.90;;;;;;5020584;28;20906;-72
2022/08/21 07:15:11;;;;;;;8.03;6.60;;;25.60;99.90;;;;;;5036713;28;20553;-72
2022/08/21 07:17:38;;;;;;;6.47;4.90;;;25.90;99.90;;;;;;5034771;28;20613;-72
2022/08/21 07:20:06;;;;;;;9.67;6.47;;;26.30;99.90;;;;;;5026884;28;20467;-73
2022/08/21 07:22:33;;;;;;;7.43;5.60;;;26.70;99.90;;;;;;5030236;28;20566;-72
2022/08/21 07:25:00;;;;;;;9.70;5.40;;;26.60;99.90;;;;;;5021909;28;20455;-72
2022/08/21 07:27:27;;;;;;;7.23;5.40;;;26.50;99.90;;;;;;5032270;28;20479;-72
2022/08/21 07:29:55;;;;;;;7.40;4.80;;;26.70;99.90;;;;;;5022461;28;20459;-72
2022/08/21 07:32:23;;;;;;;12.40;8.63;;;26.70;99.90;;;;;;5027663;28;20572;-73
2022/08/21 07:34:49;;;;;;;7.50;5.80;;;26.60;99.90;;;;;;5037666;28;20468;-72
2022/08/21 07:37:16;;;;;;;9.43;5.17;;;26.20;99.90;;;;;;5042536;28;20472;-73
2022/08/21 07:39:43;;;;;;;10.70;6.03;;;26.30;99.90;;;;;;5026420;28;20470;-73
2022/08/21 07:42:11;;;;;;;14.73;6.37;;;26.60;99.90;;;;;;5030024;28;20478;-73
2022/08/21 07:44:43;;;;;;;9.30;5.07;;;26.70;99.90;;;;;;5029512;28;20465;-73
2022/08/21 07:47:12;;;;;;;11.90;5.43;;;27.00;99.90;;;;;;5028555;28;20584;-72
2022/08/21 07:49:39;;;;;;;8.70;4.40;;;26.80;99.90;;;;;;5038285;28;20457;-73
2022/08/21 07:52:06;;;;;;;10.80;5.50;;;27.30;99.90;;;;;;5027344;28;20881;-73
2022/08/21 07:54:33;;;;;;;17.80;4.83;;;27.50;99.90;;;;;;5025704;28;20550;-73
2022/08/21 07:57:00;;;;;;;5.00;4.50;;;27.80;99.90;;;;;;5032492;28;20542;-71
2022/08/21 07:59:27;;;;;;;5.47;4.33;;;28.10;99.90;;;;;;5028577;28;20834;-71
2022/08/21 08:01:54;;;;;;;8.20;4.10;;;27.50;99.90;;;;;;5037060;28;20462;-73
2022/08/21 08:04:22;;;;;;;13.70;6.20;;;27.40;99.90;;;;;;5034736;28;20459;-72
2022/08/21 08:06:49;;;;;;;4.70;3.73;;;28.00;99.90;;;;;;5034375;28;20480;-72
2022/08/21 08:09:16;;;;;;;6.00;3.27;;;28.30;99.90;;;;;;5027496;28;20482;-73
2022/08/21 08:11:44;;;;;;;8.70;4.20;;;28.60;99.90;;;;;;5035230;28;20552;-73
2022/08/21 08:14:11;;;;;;;4.33;3.27;;;28.20;99.90;;;;;;5038324;28;20479;-74
2022/08/21 08:16:38;;;;;;;8.10;3.60;;;28.50;99.90;;;;;;5038508;28;20539;-73
2022/08/21 08:19:05;;;;;;;2.90;2.30;;;28.00;99.90;;;;;;5025470;28;20848;-72
2022/08/21 08:21:34;;;;;;;3.73;2.13;;;28.60;99.90;;;;;;5025169;28;20467;-72
2022/08/21 08:24:03;;;;;;;4.33;2.77;;;29.00;98.80;;;;;;5029636;28;20504;-73
2022/08/21 08:26:30;;;;;;;3.80;2.10;;;29.20;97.30;;;;;;5036231;28;20993;-73
2022/08/21 08:28:56;;;;;;;4.57;2.90;;;29.40;96.10;;;;;;5032297;28;20569;-73
2022/08/21 08:31:23;;;;;;;4.37;2.20;;;29.30;95.90;;;;;;5034083;28;20456;-73
2022/08/21 08:33:50;;;;;;;4.57;2.30;;;28.80;95.90;;;;;;5029834;28;20484;-73
2022/08/21 08:36:19;;;;;;;4.73;1.80;;;28.50;97.10;;;;;;5031735;28;20555;-73
2022/08/21 08:38:48;;;;;;;2.43;1.80;;;29.00;97.00;;;;;;5038346;28;21156;-72
2022/08/21 08:41:18;;;;;;;4.27;2.00;;;29.40;95.70;;;;;;5026483;28;20457;-72
2022/08/21 08:43:53;;;;;;;3.37;2.20;;;29.50;95.50;;;;;;5026111;28;20487;-72
2022/08/21 08:46:32;;;;;;;4.00;2.07;;;28.60;96.40;;;;;;5037801;28;20490;-72
2022/08/21 08:49:05;;;;;;;2.77;1.80;;;29.30;95.50;;;;;;5038592;28;20543;-73
2022/08/21 08:51:41;;;;;;;2.13;1.93;;;28.70;95.60;;;;;;5041796;28;20960;-72
2022/08/21 08:54:15;;;;;;;3.10;2.50;;;29.10;95.10;;;;;;5036341;28;20483;-74
2022/08/21 08:56:41;;;;;;;2.80;1.63;;;29.30;94.90;;;;;;5040456;28;20452;-74
2022/08/21 08:59:14;;;;;;;4.93;2.23;;;29.80;95.00;;;;;;5036915;28;20462;-73
2022/08/21 09:01:41;;;;;;;2.90;1.60;;;30.50;93.50;;;;;;5032150;28;20452;-74
2022/08/21 09:04:12;;;;;;;2.90;1.83;;;30.90;92.70;;;;;;5035766;28;20482;-76
2022/08/21 09:06:51;;;;;;;4.60;2.83;;;30.40;92.00;;;;;;5031156;28;20532;-73
2022/08/21 09:09:29;;;;;;;4.70;2.63;;;30.30;92.50;;;;;;5036451;28;20464;-73
2022/08/21 09:12:03;;;;;;;3.20;1.63;;;30.70;91.30;;;;;;5025074;28;20972;-74
2022/08/21 09:14:48;;;;;;;4.10;2.83;;;30.90;91.10;;;;;;5026663;28;20539;-74
2022/08/21 09:17:28;;;;;;;4.33;2.10;;;30.70;91.10;;;;;;5031103;28;20447;-72
2022/08/21 09:20:09;;;;;;;6.57;2.07;;;31.20;90.40;;;;;;5030136;28;20933;-73
2022/08/21 09:22:46;;;;;;;3.97;2.43;;;31.20;91.10;;;;;;5026075;28;20472;-74
2022/08/21 09:25:20;;;;;;;3.97;1.87;;;30.90;89.20;;;;;;5034085;28;20570;-71
2022/08/21 09:27:48;;;;;;;4.07;2.17;;;30.90;88.40;;;;;;5029028;28;20585;-73
2022/08/21 09:30:15;;;;;;;6.20;2.13;;;30.40;90.50;;;;;;5029110;28;20460;-73
2022/08/21 09:32:42;;;;;;;5.50;2.50;;;30.40;89.90;;;;;;5021010;28;20480;-73
2022/08/21 09:35:12;;;;;;;8.50;2.47;;;30.80;88.80;;;;;;5014147;28;20483;-73
2022/08/21 09:37:54;;;;;;;3.47;2.13;;;31.10;87.40;;;;;;5036154;28;20459;-73
2022/08/21 09:40:34;;;;;;;5.07;2.47;;;30.20;88.10;;;;;;5035083;28;20447;-72
2022/08/21 09:43:04;;;;;;;3.40;2.20;;;29.80;89.00;;;;;;5039846;28;20492;-73
2022/08/21 09:45:31;;;;;;;2.50;1.97;;;29.80;90.90;;;;;;5040038;28;20448;-73
2022/08/21 09:48:09;;;;;;;4.20;1.90;;;30.40;90.80;;;;;;5040268;28;20491;-74
2022/08/21 09:50:36;;;;;;;4.90;1.97;;;30.40;88.90;;;;;;5027021;28;20457;-73
2022/08/21 09:53:06;;;;;;;7.30;3.00;;;30.20;89.10;;;;;;5040003;23;20499;-73
2022/08/21 09:58:43;;;;;;;2.60;2.17;;;32.00;84.80;;;;;;5047558;28;21016;-73
2022/08/21 10:01:40;;;;;;;2.97;1.70;;;31.20;84.90;;;;;;5048498;28;20454;-74
2022/08/21 10:04:09;;;;;;;4.20;2.53;;;31.40;83.30;;;;;;5028186;28;20581;-74
2022/08/21 10:06:36;;;;;;;4.23;2.13;;;31.50;85.70;;;;;;5031413;28;20467;-74
2022/08/21 10:09:09;;;;;;;2.57;1.70;;;31.90;83.50;;;;;;5052595;28;20537;-75
2022/08/21 10:11:38;;;;;;;2.93;2.10;;;32.40;81.60;;;;;;5055919;28;20462;-75
2022/08/21 10:14:17;;;;;;;4.80;1.73;;;33.00;80.50;;;;;;5042548;28;20477;-75
2022/08/21 10:16:56;;;;;;;5.77;1.80;;;33.10;77.20;;;;;;5051133;28;21136;-74
2022/08/21 10:19:36;;;;;;;5.70;2.37;;;33.10;76.80;;;;;;5048206;28;20549;-74
2022/08/21 10:22:16;;;;;;;2.63;1.73;;;32.10;79.10;;;;;;5052760;28;20537;-74
2022/08/21 10:24:52;;;;;;;5.50;2.00;;;31.30;80.40;;;;;;5044872;28;20763;-74
2022/08/21 10:27:33;;;;;;;5.03;1.97;;;32.00;78.70;;;;;;5051213;28;20504;-74
2022/08/21 10:30:09;;;;;;;5.07;1.90;;;33.10;75.40;;;;;;5047295;28;20496;-74
2022/08/21 10:32:56;;;;;;;2.93;1.57;;;33.40;73.90;;;;;;5048581;28;20482;-74
2022/08/21 10:35:30;;;;;;;3.53;1.20;;;33.70;70.30;;;;;;5053874;28;20455;-74
2022/08/21 10:38:23;;;;;;;4.53;2.10;;;33.40;70.00;;;;;;5058299;28;20542;-74
2022/08/21 10:40:59;;;;;;;3.60;1.93;;;33.40;69.40;;;;;;5060916;28;20529;-74
2022/08/21 10:43:50;;;;;;;2.60;1.77;;;33.40;70.70;;;;;;5055496;28;20516;-75
2022/08/21 10:46:28;;;;;;;3.00;1.70;;;33.30;71.60;;;;;;5053198;28;20986;-74
2022/08/21 10:48:59;;;;;;;1.83;1.33;;;33.50;69.80;;;;;;5051467;28;20543;-74
2022/08/21 10:51:39;;;;;;;2.80;1.30;;;33.50;67.30;;;;;;5047467;28;25078;-74
2022/08/21 10:54:18;;;;;;;3.63;1.87;;;32.60;67.60;;;;;;5049425;28;20478;-73
2022/08/21 10:56:48;;;;;;;3.73;1.43;;;33.20;69.50;;;;;;5060122;28;20468;-74
2022/08/21 10:59:29;;;;;;;4.30;1.20;;;33.40;66.00;;;;;;5051489;28;20543;-75
2022/08/21 11:02:00;;;;;;;2.33;1.40;;;32.90;66.70;;;;;;5052446;28;20512;-75
2022/08/21 11:04:36;;;;;;;2.10;1.50;;;33.70;63.80;;;;;;5054215;28;20585;-75
2022/08/21 11:07:21;;;;;;;2.97;1.40;;;34.30;65.00;;;;;;5051550;28;21143;-74
2022/08/21 11:09:55;;;;;;;1.70;1.20;;;34.70;62.40;;;;;;5051479;28;20458;-75
2022/08/21 11:12:30;;;;;;;1.30;1.20;;;34.00;62.30;;;;;;5059821;28;20482;-74
2022/08/21 11:15:25;;;;;;;2.70;1.10;;;35.00;60.00;;;;;;5056682;28;20893;-74
2022/08/21 11:18:06;;;;;;;7.00;1.30;;;35.20;57.80;;;;;;5054049;28;20507;-73
2022/08/21 11:20:43;;;;;;;2.70;1.30;;;34.90;57.70;;;;;;5055382;28;20459;-74
2022/08/21 11:23:18;;;;;;;2.37;1.20;;;35.00;58.30;;;;;;5061920;28;20938;-73
2022/08/21 11:25:56;;;;;;;3.50;1.23;;;35.40;58.40;;;;;;5050369;28;20521;-74
2022/08/21 11:28:28;;;;;;;2.77;1.80;;;34.80;58.70;;;;;;5054269;28;20519;-73
2022/08/21 11:31:15;;;;;;;2.57;1.10;;;33.80;58.30;;;;;;5049026;28;20450;-73
2022/08/21 11:33:59;;;;;;;2.53;1.13;;;33.90;57.70;;;;;;5056772;28;20474;-74
2022/08/21 11:36:34;;;;;;;1.80;1.33;;;33.80;59.40;;;;;;5055043;28;21031;-75
2022/08/21 11:39:09;;;;;;;1.70;1.43;;;34.40;58.30;;;;;;5050611;28;20519;-75
2022/08/21 11:42:02;;;;;;;4.10;1.43;;;34.70;58.30;;;;;;5028339;28;20460;-74
2022/08/21 11:44:43;;;;;;;2.10;1.30;;;34.80;58.10;;;;;;5043979;28;25132;-75
2022/08/21 11:47:26;;;;;;;4.40;2.30;;;35.00;58.20;;;;;;5040029;28;20977;-74
2022/08/21 11:50:03;;;;;;;3.17;1.20;;;34.50;56.30;;;;;;5047662;28;20599;-74
2022/08/21 11:52:36;;;;;;;1.73;1.00;;;33.90;57.50;;;;;;5046365;28;20571;-74
2022/08/21 11:55:08;;;;;;;2.60;1.43;;;33.40;58.90;;;;;;5046981;28;20466;-74
2022/08/21 11:57:47;;;;;;;2.53;1.60;;;33.10;58.50;;;;;;5050754;28;20842;-74
2022/08/21 12:00:23;;;;;;;1.90;1.30;;;32.20;61.50;;;;;;5047210;28;20562;-74
2022/08/21 12:02:54;;;;;;;1.33;1.23;;;32.80;62.30;;;;;;5043409;28;20569;-74
2022/08/21 12:05:32;;;;;;;3.50;1.57;;;33.10;59.80;;;;;;5046487;28;20508;-74
2022/08/21 12:08:30;;;;;;;2.60;1.30;;;32.90;62.30;;;;;;5051572;28;20512;-74
2022/08/21 12:11:07;;;;;;;2.77;1.30;;;32.70;60.90;;;;;;5043430;28;20469;-74
2022/08/21 12:13:38;;;;;;;2.83;1.30;;;32.10;60.80;;;;;;5048727;28;20577;-74
2022/08/21 12:16:19;;;;;;;1.40;1.30;;;31.80;62.10;;;;;;5056849;28;21043;-74
2022/08/21 12:19:07;;;;;;;1.80;1.50;;;32.20;61.10;;;;;;5054396;28;20824;-75
2022/08/21 12:21:48;;;;;;;2.53;1.40;;;32.50;60.70;;;;;;5052426;28;20448;-73
2022/08/21 12:24:24;;;;;;;3.67;1.73;;;32.80;62.60;;;;;;5057805;28;20535;-74
2022/08/21 12:27:00;;;;;;;3.53;1.27;;;33.70;61.70;;;;;;5060745;28;20454;-74
2022/08/21 12:29:38;;;;;;;1.80;1.60;;;33.80;59.80;;;;;;5058895;28;20478;-73
2022/08/21 12:32:50;;;;;;;2.40;1.13;;;33.70;58.20;;;;;;5053243;28;20729;-73
2022/08/21 12:35:27;;;;;;;2.80;1.30;;;33.80;59.60;;;;;;5041047;28;20451;-73
2022/08/21 12:38:03;;;;;;;5.00;1.40;;;34.10;57.20;;;;;;5051556;28;20463;-75
2022/08/21 12:40:40;;;;;;;1.90;1.23;;;33.60;56.70;;;;;;5055278;28;20907;-73
2022/08/21 12:43:15;;;;;;;3.00;1.33;;;34.60;57.60;;;;;;5051713;28;20550;-74
2022/08/21 12:45:47;;;;;;;2.43;1.23;;;34.50;57.40;;;;;;5054192;28;20464;-75
2022/08/21 12:48:22;;;;;;;2.97;1.20;;;34.80;58.10;;;;;;5059160;28;20478;-74
2022/08/21 12:50:57;;;;;;;5.23;1.30;;;35.60;55.40;;;;;;5051011;28;20458;-73
2022/08/21 12:56:15;;;;;;;2.43;1.30;;;35.40;56.70;;;;;;5049968;28;20466;-73
2022/08/21 12:58:50;;;;;;;3.97;1.60;;;34.80;55.80;;;;;;5045001;28;20451;-74
2022/08/21 13:01:34;;;;;;;1.70;1.10;;;35.00;56.00;;;;;;5043498;28;20549;-74
2022/08/21 13:04:11;;;;;;;3.00;1.43;;;35.50;55.80;;;;;;5045035;28;21798;-75
2022/08/21 13:06:51;;;;;;;1.83;1.63;;;36.60;55.20;;;;;;5050248;28;20542;-74
2022/08/21 13:09:24;;;;;;;4.97;1.63;;;37.00;54.80;;;;;;5051117;28;20518;-74
2022/08/21 13:11:52;;;;;;;3.30;2.13;;;37.30;54.20;;;;;;5047917;28;20458;-74
2022/08/21 13:14:25;;;;;;;2.60;1.43;;;36.60;53.40;;;;;;5042133;28;20465;-74
2022/08/21 13:16:55;;;;;;;2.37;1.60;;;36.70;53.70;;;;;;5058286;28;20458;-74
2022/08/21 13:19:23;;;;;;;3.63;1.47;;;36.60;54.30;;;;;;5055266;28;20461;-73